sensor_id;sensor_type;location;lat;lon;timestamp;P1;durP1;ratioP1;P2;durP2;ratioP2
72123;SDS011;63818;37.134;-8.548;2023-05-29T00:02:52;16.2;;;6.9;;
72123;SDS011;63818;37.134;-8.548;2023-05-29T00:07:44;15.4;;;6.9;;
72123;SDS011;63818;37.134;-8.548;2023-05-29T00:12:30;12.5;;;6.5;;
72123;SDS011;63818;37.134;-8.548;2023-05-29T00:17:18;12.1;;;6.3;;
72123;SDS011;63818;37.134;-8.548;2023-05-29T00:22:04;13.9;;;6.4;;
72123;SDS011;63818;37.134;-8.548;2023-05-29T00:26:52;15.7;;;6.4;;
72123;SDS011;63818;37.134;-8.548;2023-05-29T00:31:41;17.4;;;6.4;;
72123;SDS011;63818;37.134;-8.548;2023-05-29T00:36:27;16.6;;;6.4;;
72123;SDS011;63818;37.134;-8.548;2023-05-29T00:41:14;14.6;;;6.8;;
72123;SDS011;63818;37.134;-8.548;2023-05-29T00:46:03;13.7;;;6.8;;
72123;SDS011;63818;37.134;-8.548;2023-05-29T00:50:50;13.7;;;6.7;;
72123;SDS011;63818;37.134;-8.548;2023-05-29T00:55:38;16.4;;;6.9;;
72123;SDS011;63818;37.134;-8.548;2023-05-29T01:00:25;16.7;;;6.8;;
72123;SDS011;63818;37.134;-8.548;2023-05-29T01:05:11;13.0;;;6.9;;
72123;SDS011;63818;37.134;-8.548;2023-05-29T01:10:04;13.1;;;6.8;;
72123;SDS011;63818;37.134;-8.548;2023-05-29T01:14:56;13.5;;;6.6;;
72123;SDS011;63818;37.134;-8.548;2023-05-29T01:19:58;12.4;;;7.0;;
72123;SDS011;63818;37.134;-8.548;2023-05-29T01:24:53;12.8;;;7.3;;
72123;SDS011;63818;37.134;-8.548;2023-05-29T01:29:46;13.4;;;7.1;;
72123;SDS011;63818;37.134;-8.548;2023-05-29T01:34:32;13.1;;;6.9;;
72123;SDS011;63818;37.134;-8.548;2023-05-29T01:39:21;14.0;;;7.1;;
72123;SDS011;63818;37.134;-8.548;2023-05-29T01:44:07;15.3;;;7.1;;
72123;SDS011;63818;37.134;-8.548;2023-05-29T01:48:54;16.0;;;6.8;;
72123;SDS011;63818;37.134;-8.548;2023-05-29T01:53:40;15.4;;;7.1;;
72123;SDS011;63818;37.134;-8.548;2023-05-29T01:58:26;13.0;;;7.2;;
72123;SDS011;63818;37.134;-8.548;2023-05-29T02:03:17;13.8;;;7.1;;
72123;SDS011;63818;37.134;-8.548;2023-05-29T02:08:04;15.2;;;6.7;;
72123;SDS011;63818;37.134;-8.548;2023-05-29T02:12:50;13.8;;;6.8;;
72123;SDS011;63818;37.134;-8.548;2023-05-29T02:17:39;12.8;;;7.3;;
72123;SDS011;63818;37.134;-8.548;2023-05-29T02:22:27;15.5;;;7.2;;
72123;SDS011;63818;37.134;-8.548;2023-05-29T02:27:14;15.7;;;7.2;;
72123;SDS011;63818;37.134;-8.548;2023-05-29T02:32:08;15.5;;;6.9;;
72123;SDS011;63818;37.134;-8.548;2023-05-29T02:36:54;15.9;;;6.5;;
72123;SDS011;63818;37.134;-8.548;2023-05-29T02:41:40;13.1;;;6.5;;
72123;SDS011;63818;37.134;-8.548;2023-05-29T02:46:31;10.7;;;6.6;;
72123;SDS011;63818;37.134;-8.548;2023-05-29T02:51:19;12.6;;;6.9;;
72123;SDS011;63818;37.134;-8.548;2023-05-29T02:56:05;13.6;;;7.0;;
72123;SDS011;63818;37.134;-8.548;2023-05-29T03:00:55;11.5;;;6.9;;
72123;SDS011;63818;37.134;-8.548;2023-05-29T03:05:41;11.9;;;6.6;;
72123;SDS011;63818;37.134;-8.548;2023-05-29T03:10:32;12.8;;;6.6;;
72123;SDS011;63818;37.134;-8.548;2023-05-29T03:15:18;13.3;;;6.9;;
72123;SDS011;63818;37.134;-8.548;2023-05-29T03:20:08;13.6;;;7.2;;
72123;SDS011;63818;37.134;-8.548;2023-05-29T03:24:54;16.8;;;7.3;;
72123;SDS011;63818;37.134;-8.548;2023-05-29T03:29:40;15.4;;;7.0;;
72123;SDS011;63818;37.134;-8.548;2023-05-29T03:34:31;12.2;;;6.8;;
72123;SDS011;63818;37.134;-8.548;2023-05-29T03:39:17;15.5;;;7.2;;
72123;SDS011;63818;37.134;-8.548;2023-05-29T03:44:03;14.5;;;7.2;;
72123;SDS011;63818;37.134;-8.548;2023-05-29T03:48:49;12.1;;;6.9;;
72123;SDS011;63818;37.134;-8.548;2023-05-29T03:53:35;12.6;;;6.9;;
72123;SDS011;63818;37.134;-8.548;2023-05-29T03:58:22;12.3;;;6.8;;
72123;SDS011;63818;37.134;-8.548;2023-05-29T04:03:08;12.3;;;7.0;;
72123;SDS011;63818;37.134;-8.548;2023-05-29T04:07:55;14.0;;;7.1;;
72123;SDS011;63818;37.134;-8.548;2023-05-29T04:12:46;16.4;;;7.1;;
72123;SDS011;63818;37.134;-8.548;2023-05-29T04:17:32;15.1;;;7.4;;
72123;SDS011;63818;37.134;-8.548;2023-05-29T04:22:18;12.8;;;7.3;;
72123;SDS011;63818;37.134;-8.548;2023-05-29T04:27:06;12.6;;;7.2;;
72123;SDS011;63818;37.134;-8.548;2023-05-29T04:31:52;14.9;;;7.3;;
72123;SDS011;63818;37.134;-8.548;2023-05-29T04:36:40;15.1;;;7.3;;
72123;SDS011;63818;37.134;-8.548;2023-05-29T04:41:26;14.8;;;7.4;;
72123;SDS011;63818;37.134;-8.548;2023-05-29T04:46:12;15.5;;;7.6;;
72123;SDS011;63818;37.134;-8.548;2023-05-29T04:51:04;13.7;;;7.5;;
72123;SDS011;63818;37.134;-8.548;2023-05-29T04:55:50;14.3;;;7.3;;
72123;SDS011;63818;37.134;-8.548;2023-05-29T05:00:35;16.4;;;7.2;;
72123;SDS011;63818;37.134;-8.548;2023-05-29T05:05:23;14.9;;;7.0;;
72123;SDS011;63818;37.134;-8.548;2023-05-29T05:10:09;14.1;;;7.3;;
72123;SDS011;63818;37.134;-8.548;2023-05-29T05:14:58;14.6;;;7.3;;
72123;SDS011;63818;37.134;-8.548;2023-05-29T05:19:44;13.3;;;7.0;;
72123;SDS011;63818;37.134;-8.548;2023-05-29T05:24:32;14.4;;;7.1;;
72123;SDS011;63818;37.134;-8.548;2023-05-29T05:29:19;14.8;;;7.6;;
72123;SDS011;63818;37.134;-8.548;2023-05-29T05:34:05;14.6;;;7.5;;
72123;SDS011;63818;37.134;-8.548;2023-05-29T05:38:50;14.9;;;7.4;;
72123;SDS011;63818;37.134;-8.548;2023-05-29T05:43:36;13.4;;;7.3;;
72123;SDS011;63818;37.134;-8.548;2023-05-29T05:48:22;13.0;;;7.1;;
72123;SDS011;63818;37.134;-8.548;2023-05-29T05:53:08;14.1;;;7.3;;
72123;SDS011;63818;37.134;-8.548;2023-05-29T05:57:54;13.0;;;7.5;;
72123;SDS011;63818;37.134;-8.548;2023-05-29T06:02:40;13.2;;;7.7;;
72123;SDS011;63818;37.134;-8.548;2023-05-29T06:07:26;14.6;;;7.5;;
72123;SDS011;63818;37.134;-8.548;2023-05-29T06:12:12;13.6;;;7.3;;
72123;SDS011;63818;37.134;-8.548;2023-05-29T06:16:59;12.8;;;13.7;;
72123;SDS011;63818;37.134;-8.548;2023-05-29T06:21:45;21.5;;;14.0;;
72123;SDS011;63818;37.134;-8.548;2023-05-29T06:26:31;15.5;;;8.0;;
72123;SDS011;63818;37.134;-8.548;2023-05-29T06:31:17;15.6;;;8.5;;
72123;SDS011;63818;37.134;-8.548;2023-05-29T06:36:06;14.2;;;8.6;;
72123;SDS011;63818;37.134;-8.548;2023-05-29T06:40:52;14.5;;;8.4;;
72123;SDS011;63818;37.134;-8.548;2023-05-29T06:45:38;16.1;;;8.2;;
72123;SDS011;63818;37.134;-8.548;2023-05-29T06:50:27;15.6;;;8.1;;
72123;SDS011;63818;37.134;-8.548;2023-05-29T06:55:13;15.3;;;8.0;;
72123;SDS011;63818;37.134;-8.548;2023-05-29T06:59:58;15.0;;;8.0;;
72123;SDS011;63818;37.134;-8.548;2023-05-29T07:04:44;16.5;;;8.2;;
72123;SDS011;63818;37.134;-8.548;2023-05-29T07:09:30;18.4;;;8.3;;
72123;SDS011;63818;37.134;-8.548;2023-05-29T07:14:16;18.9;;;8.7;;
72123;SDS011;63818;37.134;-8.548;2023-05-29T07:19:02;16.8;;;9.1;;
72123;SDS011;63818;37.134;-8.548;2023-05-29T07:23:48;15.7;;;9.1;;
72123;SDS011;63818;37.134;-8.548;2023-05-29T07:28:36;16.5;;;8.9;;
72123;SDS011;63818;37.134;-8.548;2023-05-29T07:33:22;15.4;;;8.4;;
72123;SDS011;63818;37.134;-8.548;2023-05-29T07:38:08;16.3;;;8.6;;
72123;SDS011;63818;37.134;-8.548;2023-05-29T07:42:54;16.0;;;8.6;;
72123;SDS011;63818;37.134;-8.548;2023-05-29T07:47:40;14.7;;;8.2;;
72123;SDS011;63818;37.134;-8.548;2023-05-29T07:52:26;15.8;;;8.6;;
72123;SDS011;63818;37.134;-8.548;2023-05-29T07:57:11;16.2;;;9.2;;
72123;SDS011;63818;37.134;-8.548;2023-05-29T08:01:57;19.3;;;9.0;;
72123;SDS011;63818;37.134;-8.548;2023-05-29T08:06:43;18.1;;;8.2;;
72123;SDS011;63818;37.134;-8.548;2023-05-29T08:11:29;16.8;;;7.8;;
72123;SDS011;63818;37.134;-8.548;2023-05-29T08:16:16;15.5;;;7.6;;
72123;SDS011;63818;37.134;-8.548;2023-05-29T08:21:02;11.2;;;7.1;;
72123;SDS011;63818;37.134;-8.548;2023-05-29T08:25:48;12.2;;;6.4;;
72123;SDS011;63818;37.134;-8.548;2023-05-29T08:30:34;13.0;;;6.5;;
72123;SDS011;63818;37.134;-8.548;2023-05-29T08:35:20;12.5;;;6.1;;
72123;SDS011;63818;37.134;-8.548;2023-05-29T08:40:06;13.8;;;5.7;;
72123;SDS011;63818;37.134;-8.548;2023-05-29T08:44:53;13.3;;;6.2;;
72123;SDS011;63818;37.134;-8.548;2023-05-29T08:49:48;15.5;;;6.3;;
72123;SDS011;63818;37.134;-8.548;2023-05-29T08:54:38;14.9;;;6.1;;
72123;SDS011;63818;37.134;-8.548;2023-05-29T08:59:25;13.5;;;6.2;;
72123;SDS011;63818;37.134;-8.548;2023-05-29T09:04:12;14.2;;;6.1;;
72123;SDS011;63818;37.134;-8.548;2023-05-29T09:08:58;13.6;;;6.0;;
72123;SDS011;63818;37.134;-8.548;2023-05-29T09:13:47;16.2;;;6.6;;
72123;SDS011;63818;37.134;-8.548;2023-05-29T09:18:33;14.4;;;7.4;;
72123;SDS011;63818;37.134;-8.548;2023-05-29T09:23:19;12.9;;;7.1;;
72123;SDS011;63818;37.134;-8.548;2023-05-29T09:28:06;14.4;;;6.9;;
72123;SDS011;63818;37.134;-8.548;2023-05-29T09:32:54;18.2;;;7.2;;
72123;SDS011;63818;37.134;-8.548;2023-05-29T09:37:43;20.6;;;7.4;;
72123;SDS011;63818;37.134;-8.548;2023-05-29T09:42:29;16.4;;;7.2;;
72123;SDS011;63818;37.134;-8.548;2023-05-29T09:47:16;13.6;;;6.7;;
72123;SDS011;63818;37.134;-8.548;2023-05-29T09:52:02;13.0;;;6.6;;
72123;SDS011;63818;37.134;-8.548;2023-05-29T09:56:51;13.1;;;6.7;;
72123;SDS011;63818;37.134;-8.548;2023-05-29T10:01:38;11.5;;;6.3;;
72123;SDS011;63818;37.134;-8.548;2023-05-29T10:06:26;10.4;;;6.1;;
72123;SDS011;63818;37.134;-8.548;2023-05-29T10:11:16;14.3;;;6.3;;
72123;SDS011;63818;37.134;-8.548;2023-05-29T10:16:08;13.5;;;6.1;;
72123;SDS011;63818;37.134;-8.548;2023-05-29T10:20:58;9.6;;;6.0;;
72123;SDS011;63818;37.134;-8.548;2023-05-29T10:25:46;10.4;;;6.0;;
72123;SDS011;63818;37.134;-8.548;2023-05-29T10:30:37;11.0;;;6.2;;
72123;SDS011;63818;37.134;-8.548;2023-05-29T10:35:31;11.4;;;6.2;;
72123;SDS011;63818;37.134;-8.548;2023-05-29T10:40:28;12.1;;;6.1;;
72123;SDS011;63818;37.134;-8.548;2023-05-29T10:45:47;13.2;;;6.6;;
72123;SDS011;63818;37.134;-8.548;2023-05-29T10:50:38;13.9;;;6.3;;
72123;SDS011;63818;37.134;-8.548;2023-05-29T10:55:35;14.4;;;6.0;;
72123;SDS011;63818;37.134;-8.548;2023-05-29T11:00:22;13.1;;;6.3;;
72123;SDS011;63818;37.134;-8.548;2023-05-29T11:05:21;14.0;;;6.5;;
72123;SDS011;63818;37.134;-8.548;2023-05-29T11:10:14;17.3;;;7.2;;
72123;SDS011;63818;37.134;-8.548;2023-05-29T11:15:03;14.6;;;7.1;;
72123;SDS011;63818;37.134;-8.548;2023-05-29T11:19:51;12.2;;;6.7;;
72123;SDS011;63818;37.134;-8.548;2023-05-29T11:24:38;11.2;;;6.4;;
72123;SDS011;63818;37.134;-8.548;2023-05-29T11:29:28;10.7;;;6.4;;
72123;SDS011;63818;37.134;-8.548;2023-05-29T11:34:15;12.0;;;6.6;;
72123;SDS011;63818;37.134;-8.548;2023-05-29T11:39:02;14.7;;;6.7;;
72123;SDS011;63818;37.134;-8.548;2023-05-29T11:43:57;14.7;;;6.5;;
72123;SDS011;63818;37.134;-8.548;2023-05-29T11:48:46;10.6;;;6.1;;
72123;SDS011;63818;37.134;-8.548;2023-05-29T11:53:33;12.6;;;6.1;;
72123;SDS011;63818;37.134;-8.548;2023-05-29T11:58:19;14.5;;;6.3;;
72123;SDS011;63818;37.134;-8.548;2023-05-29T12:03:07;14.5;;;6.4;;
72123;SDS011;63818;37.134;-8.548;2023-05-29T12:07:54;14.9;;;6.6;;
72123;SDS011;63818;37.134;-8.548;2023-05-29T12:12:40;12.4;;;6.5;;
72123;SDS011;63818;37.134;-8.548;2023-05-29T12:17:27;14.5;;;6.2;;
72123;SDS011;63818;37.134;-8.548;2023-05-29T12:22:16;17.5;;;6.2;;
72123;SDS011;63818;37.134;-8.548;2023-05-29T12:27:10;14.2;;;5.9;;
72123;SDS011;63818;37.134;-8.548;2023-05-29T12:31:59;14.4;;;5.9;;
72123;SDS011;63818;37.134;-8.548;2023-05-29T12:36:45;18.4;;;6.1;;
72123;SDS011;63818;37.134;-8.548;2023-05-29T12:41:33;16.5;;;6.0;;
72123;SDS011;63818;37.134;-8.548;2023-05-29T12:46:20;11.4;;;5.7;;
72123;SDS011;63818;37.134;-8.548;2023-05-29T12:51:06;9.7;;;5.8;;
72123;SDS011;63818;37.134;-8.548;2023-05-29T12:55:52;9.7;;;5.8;;
72123;SDS011;63818;37.134;-8.548;2023-05-29T13:00:39;10.6;;;5.5;;
72123;SDS011;63818;37.134;-8.548;2023-05-29T13:05:26;12.6;;;5.5;;
72123;SDS011;63818;37.134;-8.548;2023-05-29T13:10:13;13.9;;;5.8;;
72123;SDS011;63818;37.134;-8.548;2023-05-29T13:15:00;13.5;;;6.0;;
72123;SDS011;63818;37.134;-8.548;2023-05-29T13:19:46;12.3;;;6.1;;
72123;SDS011;63818;37.134;-8.548;2023-05-29T13:24:31;16.0;;;6.1;;
72123;SDS011;63818;37.134;-8.548;2023-05-29T13:29:18;16.5;;;5.8;;
72123;SDS011;63818;37.134;-8.548;2023-05-29T13:34:04;14.5;;;5.5;;
72123;SDS011;63818;37.134;-8.548;2023-05-29T13:38:50;11.8;;;5.4;;
72123;SDS011;63818;37.134;-8.548;2023-05-29T13:43:36;10.3;;;5.7;;
72123;SDS011;63818;37.134;-8.548;2023-05-29T13:48:22;12.1;;;5.9;;
72123;SDS011;63818;37.134;-8.548;2023-05-29T13:53:08;12.3;;;5.6;;
72123;SDS011;63818;37.134;-8.548;2023-05-29T13:57:54;11.8;;;5.3;;
72123;SDS011;63818;37.134;-8.548;2023-05-29T14:02:41;12.1;;;5.4;;
72123;SDS011;63818;37.134;-8.548;2023-05-29T14:07:27;11.5;;;5.4;;
72123;SDS011;63818;37.134;-8.548;2023-05-29T14:12:13;12.0;;;5.2;;
72123;SDS011;63818;37.134;-8.548;2023-05-29T14:17:00;13.7;;;5.2;;
72123;SDS011;63818;37.134;-8.548;2023-05-29T14:21:46;15.9;;;5.3;;
72123;SDS011;63818;37.134;-8.548;2023-05-29T14:26:32;15.5;;;5.3;;
72123;SDS011;63818;37.134;-8.548;2023-05-29T14:31:18;12.9;;;5.2;;
72123;SDS011;63818;37.134;-8.548;2023-05-29T14:36:04;14.0;;;5.3;;
72123;SDS011;63818;37.134;-8.548;2023-05-29T14:40:50;14.2;;;5.4;;
72123;SDS011;63818;37.134;-8.548;2023-05-29T14:45:37;12.3;;;5.5;;
72123;SDS011;63818;37.134;-8.548;2023-05-29T14:50:23;12.1;;;5.4;;
72123;SDS011;63818;37.134;-8.548;2023-05-29T14:55:09;11.1;;;5.2;;
72123;SDS011;63818;37.134;-8.548;2023-05-29T14:59:55;7.8;;;4.8;;
72123;SDS011;63818;37.134;-8.548;2023-05-29T15:04:41;9.0;;;4.9;;
72123;SDS011;63818;37.134;-8.548;2023-05-29T15:09:27;11.8;;;5.4;;
72123;SDS011;63818;37.134;-8.548;2023-05-29T15:14:13;11.5;;;5.4;;
72123;SDS011;63818;37.134;-8.548;2023-05-29T15:19:02;12.9;;;5.4;;
72123;SDS011;63818;37.134;-8.548;2023-05-29T15:23:47;13.3;;;5.3;;
72123;SDS011;63818;37.134;-8.548;2023-05-29T15:28:34;13.8;;;5.3;;
72123;SDS011;63818;37.134;-8.548;2023-05-29T15:33:20;14.7;;;5.5;;
72123;SDS011;63818;37.134;-8.548;2023-05-29T15:38:05;12.1;;;5.5;;
72123;SDS011;63818;37.134;-8.548;2023-05-29T15:42:52;10.8;;;5.3;;
72123;SDS011;63818;37.134;-8.548;2023-05-29T15:47:38;11.8;;;5.2;;
72123;SDS011;63818;37.134;-8.548;2023-05-29T15:52:24;11.9;;;5.3;;
72123;SDS011;63818;37.134;-8.548;2023-05-29T15:57:10;9.3;;;5.1;;
72123;SDS011;63818;37.134;-8.548;2023-05-29T16:01:56;9.9;;;5.2;;
72123;SDS011;63818;37.134;-8.548;2023-05-29T16:06:43;10.5;;;5.0;;
72123;SDS011;63818;37.134;-8.548;2023-05-29T16:11:29;8.8;;;4.7;;
72123;SDS011;63818;37.134;-8.548;2023-05-29T16:16:15;7.8;;;4.6;;
72123;SDS011;63818;37.134;-8.548;2023-05-29T16:21:04;7.8;;;4.8;;
72123;SDS011;63818;37.134;-8.548;2023-05-29T16:25:50;8.4;;;5.0;;
72123;SDS011;63818;37.134;-8.548;2023-05-29T16:30:36;7.8;;;4.7;;
72123;SDS011;63818;37.134;-8.548;2023-05-29T16:35:23;7.7;;;4.7;;
72123;SDS011;63818;37.134;-8.548;2023-05-29T16:40:09;7.7;;;4.8;;
72123;SDS011;63818;37.134;-8.548;2023-05-29T16:44:55;9.5;;;5.3;;
72123;SDS011;63818;37.134;-8.548;2023-05-29T16:49:40;10.4;;;5.1;;
72123;SDS011;63818;37.134;-8.548;2023-05-29T16:54:26;9.3;;;4.7;;
72123;SDS011;63818;37.134;-8.548;2023-05-29T16:59:12;9.9;;;5.1;;
72123;SDS011;63818;37.134;-8.548;2023-05-29T17:03:58;11.1;;;5.0;;
72123;SDS011;63818;37.134;-8.548;2023-05-29T17:08:44;10.2;;;4.7;;
72123;SDS011;63818;37.134;-8.548;2023-05-29T17:13:30;9.6;;;4.8;;
72123;SDS011;63818;37.134;-8.548;2023-05-29T17:18:19;9.2;;;4.8;;
72123;SDS011;63818;37.134;-8.548;2023-05-29T17:23:05;9.1;;;4.5;;
72123;SDS011;63818;37.134;-8.548;2023-05-29T17:27:50;9.8;;;4.9;;
72123;SDS011;63818;37.134;-8.548;2023-05-29T17:32:36;9.7;;;5.3;;
72123;SDS011;63818;37.134;-8.548;2023-05-29T17:37:22;10.6;;;4.9;;
72123;SDS011;63818;37.134;-8.548;2023-05-29T17:42:09;9.9;;;4.8;;
72123;SDS011;63818;37.134;-8.548;2023-05-29T17:46:55;8.0;;;4.8;;
72123;SDS011;63818;37.134;-8.548;2023-05-29T17:51:41;9.0;;;4.9;;
72123;SDS011;63818;37.134;-8.548;2023-05-29T17:56:27;9.9;;;4.9;;
72123;SDS011;63818;37.134;-8.548;2023-05-29T18:01:13;9.1;;;4.8;;
72123;SDS011;63818;37.134;-8.548;2023-05-29T18:05:59;8.2;;;4.6;;
72123;SDS011;63818;37.134;-8.548;2023-05-29T18:10:45;8.3;;;4.7;;
72123;SDS011;63818;37.134;-8.548;2023-05-29T18:15:31;8.2;;;4.8;;
72123;SDS011;63818;37.134;-8.548;2023-05-29T18:20:17;7.5;;;4.6;;
72123;SDS011;63818;37.134;-8.548;2023-05-29T18:25:04;8.1;;;4.6;;
72123;SDS011;63818;37.134;-8.548;2023-05-29T18:29:50;8.4;;;4.6;;
72123;SDS011;63818;37.134;-8.548;2023-05-29T18:34:36;8.6;;;4.8;;
72123;SDS011;63818;37.134;-8.548;2023-05-29T18:39:22;8.9;;;4.9;;
72123;SDS011;63818;37.134;-8.548;2023-05-29T18:44:08;11.2;;;4.9;;
72123;SDS011;63818;37.134;-8.548;2023-05-29T18:48:55;12.4;;;4.9;;
72123;SDS011;63818;37.134;-8.548;2023-05-29T18:53:40;11.2;;;5.1;;
72123;SDS011;63818;37.134;-8.548;2023-05-29T18:58:29;10.6;;;5.0;;
72123;SDS011;63818;37.134;-8.548;2023-05-29T19:03:15;9.4;;;4.9;;
72123;SDS011;63818;37.134;-8.548;2023-05-29T19:08:01;9.1;;;5.1;;
72123;SDS011;63818;37.134;-8.548;2023-05-29T19:12:47;10.3;;;5.2;;
72123;SDS011;63818;37.134;-8.548;2023-05-29T19:17:33;9.8;;;5.2;;
72123;SDS011;63818;37.134;-8.548;2023-05-29T19:22:19;9.4;;;5.1;;
72123;SDS011;63818;37.134;-8.548;2023-05-29T19:27:05;9.5;;;5.1;;
72123;SDS011;63818;37.134;-8.548;2023-05-29T19:31:51;8.2;;;5.1;;
72123;SDS011;63818;37.134;-8.548;2023-05-29T19:36:37;9.0;;;5.2;;
72123;SDS011;63818;37.134;-8.548;2023-05-29T19:41:23;9.6;;;5.1;;
72123;SDS011;63818;37.134;-8.548;2023-05-29T19:46:11;10.0;;;4.9;;
72123;SDS011;63818;37.134;-8.548;2023-05-29T19:50:57;10.3;;;4.9;;
72123;SDS011;63818;37.134;-8.548;2023-05-29T19:55:44;9.9;;;5.1;;
72123;SDS011;63818;37.134;-8.548;2023-05-29T20:00:29;10.8;;;5.4;;
72123;SDS011;63818;37.134;-8.548;2023-05-29T20:05:16;9.8;;;5.5;;
72123;SDS011;63818;37.134;-8.548;2023-05-29T20:10:01;8.2;;;5.5;;
72123;SDS011;63818;37.134;-8.548;2023-05-29T20:14:48;9.0;;;5.5;;
72123;SDS011;63818;37.134;-8.548;2023-05-29T20:19:34;10.3;;;5.2;;
72123;SDS011;63818;37.134;-8.548;2023-05-29T20:24:20;11.0;;;5.6;;
72123;SDS011;63818;37.134;-8.548;2023-05-29T20:29:06;10.8;;;5.6;;
72123;SDS011;63818;37.134;-8.548;2023-05-29T20:33:52;10.9;;;5.3;;
72123;SDS011;63818;37.134;-8.548;2023-05-29T20:38:38;10.5;;;5.2;;
72123;SDS011;63818;37.134;-8.548;2023-05-29T20:43:24;12.5;;;5.3;;
72123;SDS011;63818;37.134;-8.548;2023-05-29T20:48:10;11.4;;;5.3;;
72123;SDS011;63818;37.134;-8.548;2023-05-29T20:52:56;9.0;;;5.1;;
72123;SDS011;63818;37.134;-8.548;2023-05-29T20:57:42;9.6;;;5.3;;
72123;SDS011;63818;37.134;-8.548;2023-05-29T21:02:28;9.2;;;5.1;;
72123;SDS011;63818;37.134;-8.548;2023-05-29T21:07:14;9.7;;;5.3;;
72123;SDS011;63818;37.134;-8.548;2023-05-29T21:12:00;10.2;;;5.9;;
72123;SDS011;63818;37.134;-8.548;2023-05-29T21:16:48;10.8;;;5.8;;
72123;SDS011;63818;37.134;-8.548;2023-05-29T21:21:34;11.0;;;5.5;;
72123;SDS011;63818;37.134;-8.548;2023-05-29T21:26:19;11.9;;;5.4;;
72123;SDS011;63818;37.134;-8.548;2023-05-29T21:31:06;11.5;;;5.5;;
72123;SDS011;63818;37.134;-8.548;2023-05-29T21:35:52;12.3;;;5.9;;
72123;SDS011;63818;37.134;-8.548;2023-05-29T21:40:38;11.9;;;5.8;;
72123;SDS011;63818;37.134;-8.548;2023-05-29T21:45:24;10.2;;;5.5;;
72123;SDS011;63818;37.134;-8.548;2023-05-29T21:50:10;10.8;;;5.4;;
72123;SDS011;63818;37.134;-8.548;2023-05-29T21:54:56;10.6;;;5.6;;
72123;SDS011;63818;37.134;-8.548;2023-05-29T21:59:42;11.1;;;5.7;;
72123;SDS011;63818;37.134;-8.548;2023-05-29T22:04:28;9.8;;;5.5;;
72123;SDS011;63818;37.134;-8.548;2023-05-29T22:09:14;9.2;;;5.6;;
72123;SDS011;63818;37.134;-8.548;2023-05-29T22:14:01;11.0;;;5.6;;
72123;SDS011;63818;37.134;-8.548;2023-05-29T22:18:47;11.2;;;5.7;;
72123;SDS011;63818;37.134;-8.548;2023-05-29T22:23:33;11.2;;;5.7;;
72123;SDS011;63818;37.134;-8.548;2023-05-29T22:28:19;11.1;;;5.7;;
72123;SDS011;63818;37.134;-8.548;2023-05-29T22:33:05;12.1;;;6.1;;
72123;SDS011;63818;37.134;-8.548;2023-05-29T22:37:51;12.6;;;6.2;;
72123;SDS011;63818;37.134;-8.548;2023-05-29T22:42:37;13.1;;;6.0;;
72123;SDS011;63818;37.134;-8.548;2023-05-29T22:47:24;12.6;;;5.9;;
72123;SDS011;63818;37.134;-8.548;2023-05-29T22:52:09;11.2;;;6.4;;
72123;SDS011;63818;37.134;-8.548;2023-05-29T22:56:56;13.9;;;6.4;;
72123;SDS011;63818;37.134;-8.548;2023-05-29T23:01:42;13.0;;;5.8;;
72123;SDS011;63818;37.134;-8.548;2023-05-29T23:06:28;11.2;;;5.8;;
72123;SDS011;63818;37.134;-8.548;2023-05-29T23:11:14;11.5;;;5.9;;
72123;SDS011;63818;37.134;-8.548;2023-05-29T23:16:00;11.5;;;5.9;;
72123;SDS011;63818;37.134;-8.548;2023-05-29T23:20:47;11.9;;;6.1;;
72123;SDS011;63818;37.134;-8.548;2023-05-29T23:25:33;10.0;;;6.0;;
72123;SDS011;63818;37.134;-8.548;2023-05-29T23:30:19;10.4;;;5.9;;
72123;SDS011;63818;37.134;-8.548;2023-05-29T23:35:07;12.1;;;6.2;;
72123;SDS011;63818;37.134;-8.548;2023-05-29T23:39:56;11.5;;;6.0;;
72123;SDS011;63818;37.134;-8.548;2023-05-29T23:44:42;11.5;;;5.9;;
72123;SDS011;63818;37.134;-8.548;2023-05-29T23:49:28;11.7;;;6.2;;
72123;SDS011;63818;37.134;-8.548;2023-05-29T23:54:14;12.2;;;6.2;;
72123;SDS011;63818;37.134;-8.548;2023-05-29T23:59:00;11.1;;;6.1;;
